createdAt,value
2019-02-25T00:00:49.330Z,10.60
2019-02-25T00:01:49.457Z,11.10
2019-02-25T00:02:49.596Z,10.30
2019-02-25T00:03:49.731Z,10.20
2019-02-25T00:04:49.859Z,10.40
2019-02-25T00:05:49.977Z,10.60
2019-02-25T00:06:50.099Z,10.10
2019-02-25T00:07:50.222Z,10.20
2019-02-25T00:08:50.346Z,9.90
2019-02-25T00:09:50.464Z,9.70
2019-02-25T00:10:50.591Z,10.50
2019-02-25T00:11:50.721Z,10.10
2019-02-25T00:12:50.849Z,10.80
2019-02-25T00:13:50.986Z,11.10
2019-02-25T00:14:51.101Z,11.00
2019-02-25T00:15:51.225Z,11.20
2019-02-25T00:16:51.361Z,10.00
2019-02-25T00:17:51.486Z,10.10
2019-02-25T00:18:51.615Z,10.00
2019-02-25T00:19:51.760Z,9.80
2019-02-25T00:20:51.874Z,11.00
2019-02-25T00:21:51.999Z,10.50
2019-02-25T00:22:52.121Z,9.50
2019-02-25T00:23:52.257Z,9.00
2019-02-25T00:24:52.393Z,9.30
2019-02-25T00:25:52.523Z,9.10
2019-02-25T00:26:52.647Z,8.80
2019-02-25T00:27:52.775Z,9.50
2019-02-25T00:28:52.932Z,9.60
2019-02-25T00:29:53.056Z,9.60
2019-02-25T00:30:53.173Z,9.30
2019-02-25T00:31:53.299Z,9.40
2019-02-25T00:32:53.427Z,9.40
2019-02-25T00:33:53.542Z,8.20
2019-02-25T00:34:53.667Z,8.40
2019-02-25T00:35:53.803Z,7.50
2019-02-25T00:36:53.921Z,7.80
2019-02-25T00:37:54.056Z,8.50
2019-02-25T00:38:54.211Z,8.00
2019-02-25T00:39:54.323Z,10.60
2019-02-25T00:40:54.450Z,9.60
2019-02-25T00:41:54.581Z,9.10
2019-02-25T00:42:54.704Z,9.70
2019-02-25T00:43:54.827Z,9.00
2019-02-25T00:44:54.954Z,10.50
2019-02-25T00:45:55.091Z,10.30
2019-02-25T00:46:55.214Z,8.80
2019-02-25T00:47:55.348Z,9.90
2019-02-25T00:48:55.476Z,9.90
2019-02-25T00:49:55.602Z,11.70
2019-02-25T00:50:55.727Z,12.30
2019-02-25T00:51:55.857Z,13.50
2019-02-25T00:52:55.991Z,10.10
2019-02-25T00:53:56.115Z,10.00
2019-02-25T00:54:56.256Z,9.30
2019-02-25T00:55:56.370Z,11.30
2019-02-25T00:56:56.498Z,9.10
2019-02-25T00:57:56.615Z,8.60
2019-02-25T00:58:56.740Z,8.10
2019-02-25T00:59:56.861Z,8.20
2019-02-25T01:00:57.029Z,9.20
2019-02-25T01:01:57.130Z,9.20
2019-02-25T01:02:57.248Z,9.60
2019-02-25T01:03:57.377Z,8.30
2019-02-25T01:04:57.553Z,9.00
2019-02-25T01:05:57.671Z,9.30
2019-02-25T01:06:57.796Z,8.30
2019-02-25T01:07:57.925Z,8.70
2019-02-25T01:08:58.103Z,8.60
2019-02-25T01:09:58.216Z,9.80
2019-02-25T01:10:58.333Z,9.20
2019-02-25T01:11:58.514Z,10.50
2019-02-25T01:12:58.615Z,10.00
2019-02-25T01:13:58.744Z,10.50
2019-02-25T01:14:58.871Z,10.20
2019-02-25T01:15:59.022Z,9.60
2019-02-25T01:16:59.140Z,9.90
2019-02-25T01:18:00.023Z,9.80
2019-02-25T01:18:59.394Z,10.00
2019-02-25T01:19:59.547Z,9.90
2019-02-25T01:20:59.669Z,10.10
2019-02-25T01:21:59.789Z,11.80
2019-02-25T01:22:59.916Z,9.10
2019-02-25T01:24:00.070Z,9.30
2019-02-25T01:25:00.301Z,9.70
2019-02-25T01:26:00.308Z,9.10
2019-02-25T01:27:00.444Z,9.20
2019-02-25T01:28:00.599Z,8.60
2019-02-25T01:29:00.701Z,8.00
2019-02-25T01:30:00.825Z,8.40
2019-02-25T01:31:00.974Z,8.80
2019-02-25T01:32:01.118Z,8.80
2019-02-25T01:33:01.225Z,9.90
2019-02-25T01:34:01.358Z,10.00
2019-02-25T01:35:01.493Z,10.50
2019-02-25T01:36:01.604Z,10.80
2019-02-25T01:37:01.729Z,11.00
2019-02-25T01:38:01.871Z,8.70
2019-02-25T01:39:01.994Z,8.80
2019-02-25T01:40:02.145Z,8.60
2019-02-25T01:41:02.277Z,8.80
2019-02-25T01:42:02.407Z,9.60
2019-02-25T01:43:02.537Z,8.20
2019-02-25T01:44:02.654Z,8.50
2019-02-25T01:45:02.802Z,9.20
2019-02-25T01:46:02.930Z,9.60
2019-02-25T01:47:03.067Z,10.20
2019-02-25T01:48:03.182Z,9.60
2019-02-25T01:49:03.338Z,9.50
2019-02-25T01:50:03.459Z,9.50
2019-02-25T01:51:03.586Z,8.90
2019-02-25T01:52:03.707Z,9.70
2019-02-25T01:53:03.854Z,9.70
2019-02-25T01:54:03.977Z,9.50
2019-02-25T01:55:04.113Z,8.90
2019-02-25T01:56:04.223Z,9.00
2019-02-25T01:57:04.366Z,9.30
2019-02-25T01:58:04.479Z,9.50
2019-02-25T01:59:04.604Z,9.10
2019-02-25T02:00:04.729Z,9.90
2019-02-25T02:01:04.881Z,10.20
2019-02-25T02:02:04.998Z,9.10
2019-02-25T02:03:05.128Z,9.00
2019-02-25T02:04:05.250Z,8.60
2019-02-25T02:05:05.403Z,9.40
2019-02-25T02:06:05.529Z,9.90
2019-02-25T02:07:05.661Z,9.70
2019-02-25T02:08:05.782Z,9.60
2019-02-25T02:09:05.916Z,10.00
2019-02-25T02:10:06.038Z,10.60
2019-02-25T02:11:06.164Z,9.80
2019-02-25T02:12:06.285Z,10.50
2019-02-25T02:13:14.011Z,8.90
2019-02-25T02:14:06.542Z,11.80
2019-02-25T02:15:06.670Z,11.50
2019-02-25T02:16:06.794Z,12.40
2019-02-25T02:17:06.919Z,12.50
2019-02-25T02:18:07.052Z,12.00
2019-02-25T02:19:07.173Z,13.50
2019-02-25T02:20:07.303Z,14.40
2019-02-25T02:21:07.428Z,14.10
2019-02-25T02:22:07.550Z,12.10
2019-02-25T02:23:07.690Z,12.30
2019-02-25T02:24:07.829Z,12.70
2019-02-25T02:25:07.948Z,11.90
2019-02-25T02:26:08.071Z,12.00
2019-02-25T02:27:08.197Z,10.80
2019-02-25T02:28:08.336Z,12.60
2019-02-25T02:29:08.459Z,10.10
2019-02-25T02:30:08.592Z,10.60
2019-02-25T02:31:08.731Z,11.60
2019-02-25T02:32:08.907Z,11.50
2019-02-25T02:33:09.008Z,12.70
2019-02-25T02:34:09.106Z,10.50
2019-02-25T02:35:09.279Z,12.50
2019-02-25T02:36:11.565Z,10.70
2019-02-25T02:37:09.469Z,12.00
2019-02-25T02:38:09.586Z,13.40
2019-02-25T02:39:09.733Z,11.20
2019-02-25T02:40:09.886Z,11.30
2019-02-25T02:41:09.987Z,13.10
2019-02-25T02:42:10.121Z,12.10
2019-02-25T02:43:10.223Z,10.10
2019-02-25T02:44:10.321Z,11.20
2019-02-25T02:45:10.447Z,11.60
2019-02-25T02:46:10.571Z,11.30
2019-02-25T02:47:10.725Z,11.10
2019-02-25T02:48:10.851Z,10.70
2019-02-25T02:49:10.975Z,10.10
2019-02-25T02:50:11.169Z,10.40
2019-02-25T02:51:11.253Z,10.30
2019-02-25T02:52:11.383Z,9.60
2019-02-25T02:53:11.508Z,12.00
2019-02-25T02:54:11.664Z,10.60
2019-02-25T02:55:11.785Z,10.60
2019-02-25T02:56:11.910Z,11.20
2019-02-25T02:57:12.039Z,9.80
2019-02-25T02:58:12.163Z,11.90
2019-02-25T02:59:12.293Z,9.60
2019-02-25T03:00:12.415Z,10.00
2019-02-25T03:01:12.546Z,10.80
2019-02-25T03:02:12.661Z,10.80
2019-02-25T03:03:12.789Z,11.20
2019-02-25T03:04:12.946Z,11.50
2019-02-25T03:05:13.071Z,10.60
2019-02-25T03:06:13.195Z,10.80
2019-02-25T03:07:13.321Z,11.30
2019-02-25T03:08:13.479Z,9.30
2019-02-25T03:09:13.596Z,11.90
2019-02-25T03:10:13.716Z,11.80
2019-02-25T03:11:13.846Z,11.90
2019-02-25T03:12:13.955Z,11.20
2019-02-25T03:13:14.079Z,10.90
2019-02-25T03:14:14.206Z,13.10
2019-02-25T03:15:14.342Z,12.30
2019-02-25T03:16:14.479Z,10.40
2019-02-25T03:17:14.603Z,10.50
2019-02-25T03:18:14.733Z,10.50
2019-02-25T03:19:14.855Z,12.10
2019-02-25T03:20:14.988Z,11.50
2019-02-25T03:21:15.110Z,12.00
2019-02-25T03:22:15.233Z,11.60
2019-02-25T03:23:15.360Z,11.80
2019-02-25T03:24:15.500Z,11.10
2019-02-25T03:25:15.622Z,10.90
2019-02-25T03:26:15.745Z,12.30
2019-02-25T03:27:15.871Z,12.20
2019-02-25T03:28:16.024Z,13.70
2019-02-25T03:29:16.124Z,11.60
2019-02-25T03:30:16.263Z,13.80
2019-02-25T03:31:16.377Z,10.60
2019-02-25T03:32:16.522Z,11.20
2019-02-25T03:33:16.646Z,11.60
2019-02-25T03:34:16.775Z,12.70
2019-02-25T03:35:16.917Z,10.60
2019-02-25T03:36:17.056Z,11.70
2019-02-25T03:37:17.173Z,11.10
2019-02-25T03:38:17.304Z,10.50
2019-02-25T03:39:17.429Z,12.60
2019-02-25T03:40:17.570Z,13.00
2019-02-25T03:41:17.689Z,13.80
2019-02-25T03:42:17.822Z,12.70
2019-02-25T03:43:17.962Z,10.60
2019-02-25T03:44:18.079Z,12.30
2019-02-25T03:45:18.206Z,14.50
2019-02-25T03:46:18.331Z,13.70
2019-02-25T03:47:18.486Z,12.80
2019-02-25T03:48:18.597Z,11.90
2019-02-25T03:49:18.712Z,10.30
2019-02-25T03:50:18.847Z,11.50
2019-02-25T03:51:18.965Z,13.00
2019-02-25T03:52:19.095Z,13.20
2019-02-25T03:53:19.239Z,13.20
2019-02-25T03:54:19.367Z,11.80
2019-02-25T03:55:19.489Z,12.70
2019-02-25T03:56:19.649Z,11.60
2019-02-25T03:57:19.761Z,14.10
2019-02-25T03:58:19.884Z,12.80
2019-02-25T03:59:20.035Z,12.90
2019-02-25T04:00:20.167Z,14.80
2019-02-25T04:01:20.290Z,12.40
2019-02-25T04:02:20.408Z,13.30
2019-02-25T04:03:20.553Z,13.10
2019-02-25T04:04:20.675Z,14.20
2019-02-25T04:05:20.804Z,13.50
2019-02-25T04:06:20.927Z,14.20
2019-02-25T04:07:21.070Z,12.30
2019-02-25T04:08:21.194Z,12.10
2019-02-25T04:09:21.321Z,9.80
2019-02-25T04:10:21.449Z,11.20
2019-02-25T04:11:21.575Z,10.20
2019-02-25T04:12:21.718Z,11.60
2019-02-25T04:13:21.825Z,10.70
2019-02-25T04:14:21.950Z,10.30
2019-02-25T04:15:22.069Z,9.50
2019-02-25T04:16:22.212Z,13.80
2019-02-25T04:17:22.330Z,11.80
2019-02-25T04:18:22.461Z,13.00
2019-02-25T04:19:22.589Z,12.10
2019-02-25T04:20:22.748Z,10.00
2019-02-25T04:21:22.867Z,11.10
2019-02-25T04:22:22.992Z,13.60
2019-02-25T04:23:23.111Z,10.10
2019-02-25T04:24:23.250Z,13.80
2019-02-25T04:25:23.375Z,12.30
2019-02-25T04:26:23.503Z,14.00
2019-02-25T04:27:23.619Z,11.10
2019-02-25T04:28:23.783Z,11.50
2019-02-25T04:29:23.895Z,17.90
2019-02-25T04:30:24.025Z,13.30
2019-02-25T04:31:24.141Z,15.60
2019-02-25T04:32:24.291Z,14.10
2019-02-25T04:33:24.417Z,15.80
2019-02-25T04:34:24.541Z,14.80
2019-02-25T04:35:24.677Z,11.70
2019-02-25T04:36:24.825Z,11.40
2019-02-25T04:37:24.933Z,13.30
2019-02-25T04:38:25.061Z,12.00
2019-02-25T04:39:25.205Z,10.70
2019-02-25T04:40:25.324Z,12.20
2019-02-25T04:41:25.453Z,13.30
2019-02-25T04:42:25.569Z,13.60
2019-02-25T04:43:25.715Z,13.90
2019-02-25T04:44:25.854Z,12.60
2019-02-25T04:45:25.973Z,11.20
2019-02-25T04:46:26.097Z,11.80
2019-02-25T04:47:26.258Z,13.10
2019-02-25T04:48:26.373Z,11.60
2019-02-25T04:49:26.489Z,12.00
2019-02-25T04:50:26.621Z,12.60
2019-02-25T04:51:26.778Z,12.80
2019-02-25T04:52:26.909Z,12.20
2019-02-25T04:53:27.023Z,12.70
2019-02-25T04:54:27.160Z,14.80
2019-02-25T04:55:27.286Z,13.50
2019-02-25T04:56:27.407Z,12.30
2019-02-25T04:57:27.560Z,13.20
2019-02-25T04:58:27.681Z,13.60
2019-02-25T04:59:27.815Z,12.80
2019-02-25T05:00:27.956Z,15.10
2019-02-25T05:01:28.088Z,13.00
2019-02-25T05:02:28.214Z,13.70
2019-02-25T05:03:28.338Z,13.50
2019-02-25T05:04:28.480Z,12.80
2019-02-25T05:05:28.612Z,11.50
2019-02-25T05:06:28.729Z,10.50
2019-02-25T05:07:28.864Z,11.70
2019-02-25T05:08:28.978Z,11.20
2019-02-25T05:09:29.101Z,11.10
2019-02-25T05:10:29.227Z,11.40
2019-02-25T05:11:29.366Z,10.90
2019-02-25T05:12:29.479Z,11.40
2019-02-25T05:13:29.601Z,11.70
2019-02-25T05:14:29.726Z,12.50
2019-02-25T05:15:29.863Z,11.90
2019-02-25T05:16:29.979Z,12.80
2019-02-25T05:17:30.112Z,12.10
2019-02-25T05:18:30.236Z,13.30
2019-02-25T05:19:30.364Z,12.60
2019-02-25T05:20:30.490Z,11.20
2019-02-25T05:21:30.618Z,12.10
2019-02-25T05:22:30.731Z,11.30
2019-02-25T05:23:30.858Z,11.60
2019-02-25T05:24:30.983Z,11.50
2019-02-25T05:25:31.108Z,13.00
2019-02-25T05:26:31.231Z,16.50
2019-02-25T05:27:31.357Z,10.10
2019-02-25T05:28:31.486Z,13.60
2019-02-25T05:29:31.606Z,11.50
2019-02-25T05:30:31.734Z,10.80
2019-02-25T05:31:31.861Z,14.50
2019-02-25T05:32:31.984Z,11.40
2019-02-25T05:33:32.117Z,12.90
2019-02-25T05:34:32.236Z,11.70
2019-02-25T05:35:32.368Z,12.60
2019-02-25T05:36:32.486Z,12.40
2019-02-25T05:37:32.620Z,12.30
2019-02-25T05:38:32.737Z,11.90
2019-02-25T05:39:32.863Z,14.50
2019-02-25T05:40:32.985Z,13.10
2019-02-25T05:41:33.107Z,12.80
2019-02-25T05:42:33.243Z,11.90
2019-02-25T05:43:33.369Z,10.80
2019-02-25T05:44:33.492Z,9.90
2019-02-25T05:45:33.631Z,11.80
2019-02-25T05:46:33.749Z,12.00
2019-02-25T05:47:33.874Z,9.80
2019-02-25T05:48:34.001Z,10.50
2019-02-25T05:49:34.144Z,12.30
2019-02-25T05:50:34.246Z,12.50
2019-02-25T05:51:34.373Z,15.80
2019-02-25T05:52:34.503Z,11.40
2019-02-25T05:53:34.619Z,11.30
2019-02-25T05:54:34.743Z,12.90
2019-02-25T05:55:34.877Z,12.00
2019-02-25T05:56:34.992Z,10.80
2019-02-25T05:57:35.110Z,13.40
2019-02-25T05:58:35.235Z,12.70
2019-02-25T05:59:35.364Z,13.70
2019-02-25T06:00:35.491Z,12.80
2019-02-25T06:01:35.603Z,11.90
2019-02-25T06:02:35.746Z,13.00
2019-02-25T06:03:35.881Z,13.70
2019-02-25T06:04:36.003Z,13.50
2019-02-25T06:05:36.127Z,12.50
2019-02-25T06:06:36.243Z,13.90
2019-02-25T06:07:36.377Z,16.10
2019-02-25T06:08:36.496Z,16.50
2019-02-25T06:09:36.631Z,17.50
2019-02-25T06:10:36.755Z,15.30
2019-02-25T06:11:36.872Z,14.90
2019-02-25T06:12:37.016Z,16.30
2019-02-25T06:13:37.137Z,20.00
2019-02-25T06:14:37.266Z,13.60
2019-02-25T06:15:37.383Z,18.60
2019-02-25T06:16:37.536Z,16.00
2019-02-25T06:17:37.646Z,15.00
2019-02-25T06:18:37.769Z,13.30
2019-02-25T06:19:37.906Z,14.20
2019-02-25T06:20:38.023Z,12.40
2019-02-25T06:21:38.150Z,12.60
2019-02-25T06:22:38.268Z,15.20
2019-02-25T06:23:38.384Z,10.80
2019-02-25T06:24:38.503Z,16.30
2019-02-25T06:25:38.631Z,10.00
2019-02-25T06:26:38.843Z,11.90
2019-02-25T06:27:38.881Z,12.10
2019-02-25T06:28:39.006Z,12.40
2019-02-25T06:29:39.145Z,11.90
2019-02-25T06:30:39.250Z,12.30
2019-02-25T06:31:39.381Z,13.20
2019-02-25T06:32:39.506Z,12.00
2019-02-25T06:33:39.633Z,12.40
2019-02-25T06:34:39.759Z,14.10
2019-02-25T06:35:39.884Z,12.10
2019-02-25T06:36:40.005Z,14.80
2019-02-25T06:37:40.130Z,15.00
2019-02-25T06:38:40.257Z,13.10
2019-02-25T06:39:40.384Z,12.30
2019-02-25T06:40:40.507Z,13.80
2019-02-25T06:41:40.634Z,12.70
2019-02-25T06:42:40.758Z,14.00
2019-02-25T06:43:40.883Z,14.40
2019-02-25T06:44:41.003Z,15.10
2019-02-25T06:45:41.131Z,15.20
2019-02-25T06:46:41.254Z,13.00
2019-02-25T06:47:41.380Z,12.60
2019-02-25T06:48:41.511Z,12.20
2019-02-25T06:49:41.637Z,14.70
2019-02-25T06:50:41.759Z,13.30
2019-02-25T06:51:41.882Z,16.10
2019-02-25T06:52:42.012Z,13.30
2019-02-25T06:53:42.130Z,13.10
2019-02-25T06:54:42.261Z,15.60
2019-02-25T06:55:42.380Z,15.50
2019-02-25T06:56:42.514Z,14.90
2019-02-25T06:57:42.628Z,19.20
2019-02-25T06:58:42.761Z,19.30
2019-02-25T06:59:42.884Z,18.10
2019-02-25T07:00:43.008Z,20.90
2019-02-25T07:01:43.138Z,18.50
2019-02-25T07:02:43.261Z,19.50
2019-02-25T07:03:43.701Z,19.20
2019-02-25T07:04:43.510Z,20.70
2019-02-25T07:05:43.637Z,21.90
2019-02-25T07:06:43.767Z,18.80
2019-02-25T07:07:43.891Z,18.80
2019-02-25T07:08:44.015Z,20.10
2019-02-25T07:09:44.132Z,19.50
2019-02-25T07:10:44.257Z,19.30
2019-02-25T07:11:44.378Z,20.70
2019-02-25T07:12:44.507Z,20.40
2019-02-25T07:13:44.619Z,22.40
2019-02-25T07:14:44.764Z,19.80
2019-02-25T07:15:44.899Z,19.40
2019-02-25T07:16:45.024Z,22.70
2019-02-25T07:17:45.150Z,17.60
2019-02-25T07:18:45.265Z,19.20
2019-02-25T07:19:45.424Z,18.80
2019-02-25T07:20:45.557Z,20.40
2019-02-25T07:21:45.674Z,19.80
2019-02-25T07:22:45.788Z,19.30
2019-02-25T07:23:45.949Z,18.40
2019-02-25T07:24:52.639Z,19.10
2019-02-25T07:25:46.194Z,15.60
2019-02-25T07:26:46.338Z,19.90
2019-02-25T07:27:46.458Z,17.20
2019-02-25T07:28:46.584Z,21.80
2019-02-25T07:29:46.705Z,17.10
2019-02-25T07:30:47.016Z,19.00
2019-02-25T07:31:47.011Z,16.00
2019-02-25T07:32:47.137Z,13.60
2019-02-25T07:33:47.266Z,16.20
2019-02-25T07:34:47.395Z,22.40
2019-02-25T07:35:47.521Z,17.60
2019-02-25T07:36:47.650Z,20.60
2019-02-25T07:37:47.768Z,15.80
2019-02-25T07:38:47.908Z,18.30
2019-02-25T07:39:48.042Z,18.50
2019-02-25T07:40:48.157Z,18.40
2019-02-25T07:41:48.319Z,18.00
2019-02-25T07:42:48.431Z,18.30
2019-02-25T07:43:48.560Z,15.60
2019-02-25T07:44:48.691Z,18.50
2019-02-25T07:45:48.830Z,16.20
2019-02-25T07:46:48.955Z,21.90
2019-02-25T07:47:49.078Z,17.80
2019-02-25T07:48:49.231Z,13.60
2019-02-25T07:49:49.351Z,15.70
2019-02-25T07:50:49.476Z,15.40
2019-02-25T07:51:49.604Z,13.80
2019-02-25T07:52:49.753Z,17.80
2019-02-25T07:53:49.874Z,16.10
2019-02-25T07:54:50.003Z,16.40
2019-02-25T07:55:50.129Z,14.60
2019-02-25T07:56:50.300Z,13.90
2019-02-25T07:57:50.431Z,12.90
2019-02-25T07:58:50.541Z,15.50
2019-02-25T07:59:50.677Z,12.60
2019-02-25T08:00:50.813Z,14.10
2019-02-25T08:01:50.939Z,15.40
2019-02-25T08:02:51.072Z,18.40
2019-02-25T08:03:51.241Z,19.20
2019-02-25T08:04:51.335Z,14.20
2019-02-25T08:05:51.462Z,13.70
2019-02-25T08:06:51.589Z,14.20
2019-02-25T08:07:51.718Z,13.80
2019-02-25T08:08:51.861Z,11.50
2019-02-25T08:09:51.997Z,14.10
2019-02-25T08:10:52.126Z,13.50
2019-02-25T08:11:52.249Z,15.10
2019-02-25T08:12:52.379Z,14.70
2019-02-25T08:13:52.513Z,13.60
2019-02-25T08:14:52.653Z,14.50
2019-02-25T08:15:52.815Z,12.20
2019-02-25T08:16:52.946Z,15.20
2019-02-25T08:17:53.066Z,13.70
2019-02-25T08:18:53.217Z,12.20
2019-02-25T08:19:53.337Z,11.10
2019-02-25T08:20:53.465Z,11.10
2019-02-25T08:21:53.600Z,9.30
2019-02-25T08:22:53.742Z,12.50
2019-02-25T08:23:53.871Z,13.60
2019-02-25T08:24:53.993Z,10.80
2019-02-25T08:25:54.114Z,10.80
2019-02-25T08:26:54.296Z,12.40
2019-02-25T08:27:54.419Z,12.00
2019-02-25T08:28:54.544Z,13.30
2019-02-25T08:29:54.670Z,13.30
2019-02-25T08:30:54.835Z,13.90
2019-02-25T08:31:54.959Z,14.00
2019-02-25T08:32:55.084Z,12.10
2019-02-25T08:33:55.577Z,13.40
2019-02-25T08:34:55.373Z,12.60
2019-02-25T08:35:55.511Z,14.10
2019-02-25T08:37:02.144Z,13.00
2019-02-25T08:37:55.763Z,11.90
2019-02-25T08:38:55.902Z,12.50
2019-02-25T08:39:56.036Z,12.20
2019-02-25T08:40:56.159Z,10.60
2019-02-25T08:41:56.304Z,13.30
2019-02-25T08:42:56.428Z,13.60
2019-02-25T08:43:56.554Z,11.70
2019-02-25T08:44:56.706Z,11.30
2019-02-25T08:45:56.831Z,14.20
2019-02-25T08:46:56.951Z,11.70
2019-02-25T08:47:57.076Z,12.60
2019-02-25T08:48:57.221Z,14.90
2019-02-25T08:49:57.348Z,14.40
2019-02-25T08:50:57.471Z,10.90
2019-02-25T08:51:57.609Z,12.30
2019-02-25T08:52:57.742Z,11.60
2019-02-25T08:53:57.857Z,11.70
2019-02-25T08:54:57.992Z,14.10
2019-02-25T08:55:58.402Z,11.80
2019-02-25T08:56:58.278Z,12.90
2019-02-25T08:57:58.425Z,13.60
2019-02-25T08:58:58.549Z,12.20
2019-02-25T08:59:58.680Z,12.60
2019-02-25T09:00:58.847Z,13.90
2019-02-25T09:01:58.972Z,15.10
2019-02-25T09:02:59.092Z,11.30
2019-02-25T09:03:59.217Z,15.10
2019-02-25T09:04:59.370Z,11.90
2019-02-25T09:05:59.485Z,11.70
2019-02-25T09:06:59.611Z,13.40
2019-02-25T09:07:59.743Z,14.60
2019-02-25T09:08:59.874Z,14.80
2019-02-25T09:09:59.995Z,13.50
2019-02-25T09:11:00.128Z,14.00
2019-02-25T09:12:00.281Z,13.50
2019-02-25T09:13:00.405Z,12.90
2019-02-25T09:14:00.535Z,17.20
2019-02-25T09:15:00.646Z,12.20
2019-02-25T09:16:00.811Z,12.40
2019-02-25T09:17:00.937Z,11.50
2019-02-25T09:18:01.043Z,12.70
2019-02-25T09:19:01.169Z,14.10
2019-02-25T09:20:01.313Z,14.60
2019-02-25T09:21:01.432Z,13.50
2019-02-25T09:22:01.566Z,13.70
2019-02-25T09:23:01.688Z,11.60
2019-02-25T09:24:01.839Z,14.30
2019-02-25T09:25:01.955Z,13.50
2019-02-25T09:26:02.082Z,14.20
2019-02-25T09:27:02.210Z,11.90
2019-02-25T09:28:02.368Z,12.40
2019-02-25T09:29:02.475Z,14.30
2019-02-25T09:30:02.605Z,12.60
2019-02-25T09:31:02.752Z,13.20
2019-02-25T09:32:02.904Z,13.10
2019-02-25T09:33:03.037Z,13.80
2019-02-25T09:34:03.161Z,15.50
2019-02-25T09:35:03.278Z,12.50
2019-02-25T09:36:03.410Z,11.70
2019-02-25T09:37:03.539Z,10.80
2019-02-25T09:38:03.686Z,11.30
2019-02-25T09:39:03.811Z,10.60
2019-02-25T09:40:03.949Z,13.20
2019-02-25T09:41:04.088Z,12.60
2019-02-25T09:42:04.217Z,12.00
2019-02-25T09:43:04.333Z,10.70
2019-02-25T09:44:04.461Z,11.70
2019-02-25T09:45:04.589Z,11.10
2019-02-25T09:46:04.718Z,13.70
2019-02-25T09:47:05.234Z,13.50
2019-02-25T09:48:04.979Z,11.80
2019-02-25T09:49:05.107Z,15.30
2019-02-25T09:50:05.235Z,12.70
2019-02-25T09:51:05.357Z,11.50
2019-02-25T09:52:05.491Z,14.90
2019-02-25T09:53:07.237Z,14.00
2019-02-25T09:54:05.733Z,14.10
2019-02-25T09:55:05.858Z,12.10
2019-02-25T09:56:05.979Z,12.40
2019-02-25T09:57:06.112Z,10.50
2019-02-25T09:58:06.238Z,12.40
2019-02-25T09:59:06.372Z,12.30
2019-02-25T10:00:06.498Z,15.30
2019-02-25T10:01:06.630Z,14.90
2019-02-25T10:02:06.755Z,12.40
2019-02-25T10:03:06.885Z,12.70
2019-02-25T10:04:08.743Z,11.60
2019-02-25T10:05:07.144Z,16.10
2019-02-25T10:06:07.282Z,12.80
2019-02-25T10:07:07.409Z,9.80
2019-02-25T10:08:07.540Z,12.00
2019-02-25T10:09:15.976Z,9.50
2019-02-25T10:10:07.864Z,10.00
2019-02-25T10:11:08.004Z,10.40
2019-02-25T10:12:08.121Z,11.40
2019-02-25T10:13:08.257Z,11.00
2019-02-25T10:14:08.386Z,9.50
2019-02-25T10:15:08.512Z,9.30
2019-02-25T10:16:08.651Z,10.30
2019-02-25T10:17:08.781Z,9.70
2019-02-25T10:18:08.912Z,10.50
2019-02-25T10:19:09.046Z,10.10
2019-02-25T10:20:09.171Z,10.90
2019-02-25T10:21:09.305Z,10.40
2019-02-25T10:22:09.430Z,10.30
2019-02-25T10:23:09.556Z,8.40
2019-02-25T10:24:09.683Z,8.70
2019-02-25T10:25:09.818Z,8.20
2019-02-25T10:26:09.959Z,10.30
2019-02-25T10:27:10.087Z,8.30
2019-02-25T10:28:10.216Z,8.60
2019-02-25T10:29:10.353Z,10.30
2019-02-25T10:30:10.485Z,9.60
2019-02-25T10:31:11.473Z,8.20
2019-02-25T10:32:10.747Z,8.70
2019-02-25T10:33:10.879Z,11.00
2019-02-25T10:34:11.008Z,9.30
2019-02-25T10:35:11.145Z,9.50
2019-02-25T10:36:11.281Z,8.70
2019-02-25T10:37:13.034Z,10.70
2019-02-25T10:38:11.566Z,9.00
2019-02-25T10:39:13.092Z,10.60
2019-02-25T10:40:13.236Z,7.90
2019-02-25T10:41:11.989Z,8.20
2019-02-25T10:42:12.133Z,8.10
2019-02-25T10:43:12.278Z,8.20
2019-02-25T10:44:12.427Z,7.20
2019-02-25T10:45:13.482Z,7.80
2019-02-25T10:46:13.877Z,8.20
2019-02-25T10:47:13.610Z,8.30
2019-02-25T10:48:12.970Z,9.00
2019-02-25T10:49:13.129Z,7.70
2019-02-25T10:50:13.261Z,9.10
2019-02-25T10:51:13.742Z,7.90
2019-02-25T10:52:15.151Z,7.50
2019-02-25T10:53:15.547Z,7.40
2019-02-25T10:54:14.724Z,9.20
2019-02-25T10:55:13.933Z,9.50
2019-02-25T10:56:16.220Z,8.00
2019-02-25T10:57:14.224Z,8.10
2019-02-25T10:58:14.367Z,7.80
2019-02-25T10:59:14.504Z,7.60
2019-02-25T11:00:14.647Z,7.40
2019-02-25T11:01:17.606Z,7.60
2019-02-25T11:02:15.403Z,8.30
2019-02-25T11:03:15.389Z,7.60
2019-02-25T11:04:17.385Z,8.00
2019-02-25T11:05:15.410Z,7.10
2019-02-25T11:06:15.539Z,9.80
2019-02-25T11:07:15.674Z,7.40
2019-02-25T11:08:15.822Z,7.60
2019-02-25T11:09:18.012Z,7.50
2019-02-25T11:10:18.056Z,8.20
2019-02-25T11:11:24.893Z,6.40
2019-02-25T11:12:21.576Z,7.30
2019-02-25T11:13:16.464Z,7.60
2019-02-25T11:14:16.598Z,9.30
2019-02-25T11:15:16.756Z,8.30
2019-02-25T11:16:18.695Z,7.20
2019-02-25T11:17:18.318Z,7.40
2019-02-25T11:18:19.524Z,6.90
2019-02-25T11:19:17.343Z,7.60
2019-02-25T11:20:17.475Z,8.00
2019-02-25T11:21:17.612Z,8.00
2019-02-25T11:22:17.761Z,7.20
2019-02-25T11:23:19.421Z,7.70
2019-02-25T11:24:19.147Z,7.90
2019-02-25T11:25:19.385Z,7.60
2019-02-25T11:26:18.353Z,7.30
2019-02-25T11:27:18.526Z,7.60
2019-02-25T11:28:25.517Z,7.30
2019-02-25T11:29:18.796Z,9.20
2019-02-25T11:30:20.763Z,7.50
2019-02-25T11:31:22.798Z,7.10
2019-02-25T11:32:19.874Z,7.50
2019-02-25T11:33:19.389Z,7.60
2019-02-25T11:34:19.538Z,7.90
2019-02-25T11:35:19.674Z,7.80
2019-02-25T11:36:21.925Z,7.80
2019-02-25T11:37:22.487Z,8.30
2019-02-25T11:38:20.123Z,7.60
2019-02-25T11:39:20.265Z,7.50
2019-02-25T11:40:20.413Z,7.70
2019-02-25T11:41:20.563Z,7.50
2019-02-25T11:42:20.743Z,7.50
2019-02-25T11:43:21.656Z,7.70
2019-02-25T11:44:21.179Z,6.90
2019-02-25T11:45:21.136Z,6.80
2019-02-25T11:46:21.301Z,6.50
2019-02-25T11:47:21.441Z,7.60
2019-02-25T11:48:22.697Z,6.50
2019-02-25T11:49:21.727Z,6.90
2019-02-25T11:50:21.905Z,5.90
2019-02-25T11:51:22.047Z,5.90
2019-02-25T11:52:22.191Z,5.70
2019-02-25T11:53:22.372Z,5.70
2019-02-25T11:54:22.519Z,9.90
2019-02-25T11:55:22.651Z,7.90
2019-02-25T11:56:22.801Z,5.60
2019-02-25T11:57:22.992Z,6.00
2019-02-25T11:58:23.127Z,5.00
2019-02-25T11:59:23.286Z,4.40
2019-02-25T12:00:23.443Z,4.40
2019-02-25T12:01:23.603Z,4.80
2019-02-25T12:02:25.975Z,4.50
2019-02-25T12:03:23.852Z,5.10
2019-02-25T12:04:23.995Z,5.30
2019-02-25T12:05:24.158Z,6.00
2019-02-25T12:06:24.313Z,3.30
2019-02-25T12:07:24.442Z,3.60
2019-02-25T12:08:24.665Z,3.90
2019-02-25T12:09:24.700Z,3.70
2019-02-25T12:10:24.835Z,3.30
2019-02-25T12:11:24.978Z,3.80
2019-02-25T12:14:40.281Z,3.20
2019-02-25T12:15:40.432Z,4.70
2019-02-25T12:16:40.565Z,3.10
2019-02-25T12:17:40.704Z,3.70
2019-02-25T12:18:42.858Z,4.10
2019-02-25T12:19:41.038Z,3.60
2019-02-25T12:20:41.319Z,3.60
2019-02-25T12:21:42.381Z,2.20
2019-02-25T12:22:41.576Z,2.00
2019-02-25T12:23:41.676Z,1.90
2019-02-25T12:24:41.982Z,2.20
2019-02-25T12:25:42.026Z,1.90
2019-02-25T12:26:42.131Z,2.70
2019-02-25T12:27:42.225Z,4.30
2019-02-25T12:28:42.373Z,3.80
2019-02-25T12:29:42.511Z,3.80
2019-02-25T12:30:42.546Z,3.70
2019-02-25T12:31:42.643Z,3.50
2019-02-25T12:32:42.856Z,3.30
2019-02-25T12:33:42.898Z,3.80
2019-02-25T12:34:43.119Z,3.30
2019-02-25T12:35:43.215Z,3.20
2019-02-25T12:36:43.347Z,3.40
2019-02-25T12:37:43.434Z,3.20
2019-02-25T12:38:43.485Z,3.00
2019-02-25T12:39:43.712Z,3.70
2019-02-25T12:40:43.770Z,3.80
2019-02-25T12:41:43.980Z,2.70
2019-02-25T12:42:44.290Z,2.50
2019-02-25T12:43:44.398Z,2.70
2019-02-25T12:44:44.584Z,3.10
2019-02-25T12:45:44.788Z,3.20
2019-02-25T12:46:44.923Z,2.50
2019-02-25T12:47:45.061Z,2.90
2019-02-25T12:48:45.361Z,2.70
2019-02-25T12:51:17.247Z,2.10
2019-02-25T12:52:17.399Z,2.70
2019-02-25T12:53:17.540Z,2.00
2019-02-25T12:54:17.738Z,2.10
2019-02-25T12:55:17.877Z,1.80
2019-02-25T12:56:18.036Z,2.50
2019-02-25T12:57:18.174Z,2.20
2019-02-25T12:58:18.354Z,1.80
2019-02-25T12:59:18.512Z,2.20
2019-02-25T13:00:18.631Z,2.10
2019-02-25T13:01:18.804Z,1.90
2019-02-25T13:02:18.969Z,2.70
2019-02-25T13:03:19.110Z,2.00
2019-02-25T13:04:19.271Z,2.00
2019-02-25T13:05:19.436Z,2.10
2019-02-25T13:06:19.587Z,1.50
2019-02-25T13:07:19.755Z,2.20